Time;durP1;ratioP1;P1;durP2;ratioP2;P2;SDS_P1;SDS_P2;PMS_P1;PMS_P2;Temp;Humidity;BMP_temperature;BMP_pressure;BME280_temperature;BME280_humidity;BME280_pressure;Samples;Min_cycle;Max_cycle;Signal;HPM_P1;HPM_P2
2022/11/07 00:02:24;;;;;;;;;;;;;;;2.56;93.60;100788.02;116288;1306;22588;-73
2022/11/07 00:05:11;;;;;;;;;;;;;;;2.63;94.18;100784.41;116279;1305;25356;-71
2022/11/07 00:07:58;;;;;;;;;;;;;;;2.66;94.25;100782.52;116272;1298;22489;-71
2022/11/07 00:10:46;;;;;;;;;;;;;;;2.67;94.50;100778.21;116275;1290;22454;-71
2022/11/07 00:13:37;;;;;;;;;;;;;;;2.66;94.67;100775.29;116305;1305;22412;-71
2022/11/07 00:16:28;;;;;;;;;;;;;;;2.67;94.60;100777.02;116260;1304;22443;-71
2022/11/07 00:19:16;;;;;;;;;;;;;;;2.69;94.44;100774.60;116305;1290;24413;-71
2022/11/07 00:22:05;;;;;;;;;;;;;;;2.79;94.90;100771.50;116244;1306;22578;-72
2022/11/07 00:24:52;;;;;;;;;;;;;;;2.97;95.69;100764.42;116301;1306;22471;-71
2022/11/07 00:27:41;;;;;;;;;;;;;;;3.16;96.38;100755.44;116275;1292;22450;-71
2022/11/07 00:30:29;;;;;;;;;;;;;;;3.32;96.56;100748.17;116315;1278;22443;-71
2022/11/07 00:33:16;;;;;;;;;;;;;;;3.42;96.44;100736.77;116283;1292;22552;-72
2022/11/07 00:36:03;;;;;;;;;;;;;;;3.50;96.52;100732.42;116280;1293;22564;-72
2022/11/07 00:38:52;;;;;;;;;;;;;;;3.62;96.22;100723.41;116308;1304;22744;-71
2022/11/07 00:41:40;;;;;;;;;;;;;;;3.75;96.58;100716.29;116270;1305;22444;-71
2022/11/07 00:44:27;;;;;;;;;;;;;;;3.91;96.55;100710.84;116288;1302;22448;-72
2022/11/07 00:47:15;;;;;;;;;;;;;;;4.09;97.07;100705.05;116285;1306;25999;-73
2022/11/07 00:50:05;;;;;;;;;;;;;;;4.23;96.90;100700.48;116300;1293;22455;-72
2022/11/07 00:52:54;;;;;;;;;;;;;;;4.35;97.03;100692.44;116247;1290;24292;-72
2022/11/07 00:55:41;;;;;;;;;;;;;;;4.45;96.96;100690.29;116275;1291;22453;-72
2022/11/07 00:58:28;;;;;;;;;;;;;;;4.52;96.55;100690.59;116027;1293;355915;-73
2022/11/07 01:01:16;;;;;;;;;;;;;;;4.59;96.21;100689.14;116136;1307;22468;-72
2022/11/07 01:07:08;;;;;;;;;;;;;;;4.78;96.42;100678.77;116267;1299;22432;-70
2022/11/07 01:09:55;;;;;;;;;;;;;;;4.90;96.69;100678.67;116303;1287;22513;-69
2022/11/07 01:12:43;;;;;;;;;;;;;;;4.99;96.54;100682.72;116255;1306;22448;-69
2022/11/07 01:15:32;;;;;;;;;;;;;;;5.05;96.56;100688.54;116305;1304;22448;-70
2022/11/07 01:18:24;;;;;;;;;;;;;;;5.07;96.20;100690.75;116303;1304;22433;-70
2022/11/07 01:21:15;;;;;;;;;;;;;;;5.13;96.02;100691.92;116301;1292;22783;-73
2022/11/07 01:24:02;;;;;;;;;;;;;;;5.22;95.80;100691.48;116312;1292;22453;-71
2022/11/07 01:26:50;;;;;;;;;;;;;;;5.31;95.99;100689.98;116269;1306;22762;-71
2022/11/07 01:29:39;;;;;;;;;;;;;;;5.40;96.13;100689.20;116328;1291;22451;-72
2022/11/07 01:32:29;;;;;;;;;;;;;;;5.47;95.92;100692.05;116294;1290;25233;-72
2022/11/07 01:35:19;;;;;;;;;;;;;;;5.50;95.79;100688.04;116141;1306;22450;-74
2022/11/07 01:38:06;;;;;;;;;;;;;;;5.50;95.67;100680.60;116302;1306;25273;-71
2022/11/07 01:44:00;;;;;;;;;;;;;;;5.53;95.61;100683.34;116297;1303;22537;-71
2022/11/07 01:46:48;;;;;;;;;;;;;;;5.59;95.58;100681.52;116267;1291;22465;-71
2022/11/07 01:49:38;;;;;;;;;;;;;;;5.69;95.59;100677.60;116296;1290;22460;-73
2022/11/07 01:52:26;;;;;;;;;;;;;;;5.78;96.01;100676.25;116270;1305;22459;-72
2022/11/07 01:55:17;;;;;;;;;;;;;;;5.84;96.00;100672.36;116301;1306;22502;-72
2022/11/07 01:58:07;;;;;;;;;;;;;;;5.89;96.26;100667.79;116291;1291;22430;-71
2022/11/07 02:00:53;;;;;;;;;;;;;;;5.92;96.00;100664.48;116203;1306;22523;-71
2022/11/07 02:03:41;;;;;;;;;;;;;;;5.95;95.86;100664.63;116306;1291;25380;-72
2022/11/07 02:06:34;;;;;;;;;;;;;;;5.98;95.62;100664.08;116303;1290;25361;-72
2022/11/07 02:09:22;;;;;;;;;;;;;;;6.06;95.85;100664.98;116305;1290;22592;-72
2022/11/07 02:12:10;;;;;;;;;;;;;;;6.13;95.84;100654.66;116278;1309;22460;-74
2022/11/07 02:14:57;;;;;;;;;;;;;;;6.19;95.94;100651.62;116315;1290;22462;-72
2022/11/07 02:17:46;;;;;;;;;;;;;;;6.22;95.67;100644.30;116300;1300;22457;-72
2022/11/07 02:20:36;;;;;;;;;;;;;;;6.24;95.61;100643.41;116288;1290;22442;-72
2022/11/07 02:23:26;;;;;;;;;;;;;;;6.22;95.52;100640.67;116284;1296;22435;-71
2022/11/07 02:26:14;;;;;;;;;;;;;;;6.23;95.26;100631.29;116297;1304;22434;-72
2022/11/07 02:29:04;;;;;;;;;;;;;;;6.26;95.22;100631.60;116270;1304;22507;-72
2022/11/07 02:32:01;;;;;;;;;;;;;;;6.31;95.27;100619.05;116296;1304;22458;-72
2022/11/07 02:34:59;;;;;;;;;;;;;;;6.39;95.60;100616.83;116308;1289;22460;-72
2022/11/07 02:37:54;;;;;;;;;;;;;;;6.48;95.81;100618.40;116263;1304;22529;-72
2022/11/07 02:40:41;;;;;;;;;;;;;;;6.50;95.36;100607.61;116256;1304;22454;-70
2022/11/07 02:43:31;;;;;;;;;;;;;;;6.47;94.88;100602.12;116313;1303;25355;-73
2022/11/07 02:46:19;;;;;;;;;;;;;;;6.39;94.76;100588.77;116296;1304;25447;-72
2022/11/07 02:49:07;;;;;;;;;;;;;;;6.33;94.66;100581.73;116294;1304;22740;-71
2022/11/07 02:51:54;;;;;;;;;;;;;;;6.33;94.80;100571.17;116169;1305;22504;-70
2022/11/07 02:54:45;;;;;;;;;;;;;;;6.35;94.91;100567.52;116321;1304;22522;-71
2022/11/07 02:57:33;;;;;;;;;;;;;;;6.38;95.10;100566.42;116269;1285;22467;-71
2022/11/07 03:00:21;;;;;;;;;;;;;;;6.44;95.26;100564.58;116294;1286;22505;-71
2022/11/07 03:03:10;;;;;;;;;;;;;;;6.46;95.24;100562.13;116309;1304;22436;-71
2022/11/07 03:05:58;;;;;;;;;;;;;;;6.48;95.23;100562.77;116252;1302;22436;-71
2022/11/07 03:08:45;;;;;;;;;;;;;;;6.46;94.89;100569.23;116306;1293;22646;-71
2022/11/07 03:11:35;;;;;;;;;;;;;;;6.48;95.05;100565.70;116248;1307;22459;-73
2022/11/07 03:14:22;;;;;;;;;;;;;;;6.52;95.05;100560.45;116276;1283;22405;-73
2022/11/07 03:17:09;;;;;;;;;;;;;;;6.56;94.93;100552.58;116242;1290;24326;-73
2022/11/07 03:20:00;;;;;;;;;;;;;;;6.59;95.14;100551.14;116276;1295;22463;-73
2022/11/07 03:22:49;;;;;;;;;;;;;;;6.60;95.19;100543.31;116285;1302;22519;-73
2022/11/07 03:25:38;;;;;;;;;;;;;;;6.60;95.29;100539.33;116160;1287;25334;-71
2022/11/07 03:28:25;;;;;;;;;;;;;;;6.59;95.37;100539.33;116309;1304;22440;-71
2022/11/07 03:31:12;;;;;;;;;;;;;;;6.60;95.28;100535.86;116257;1304;22512;-71
2022/11/07 03:34:00;;;;;;;;;;;;;;;6.63;95.51;100533.38;116318;1304;22424;-73
2022/11/07 03:36:50;;;;;;;;;;;;;;;6.67;95.44;100525.50;116266;1291;25381;-73
2022/11/07 03:39:39;;;;;;;;;;;;;;;6.69;95.53;100525.44;116271;1301;25373;-70
2022/11/07 03:42:28;;;;;;;;;;;;;;;6.69;95.57;100533.42;116326;1304;22549;-70
2022/11/07 03:45:16;;;;;;;;;;;;;;;6.69;95.59;100533.77;116291;1305;22403;-72
2022/11/07 03:48:04;;;;;;;;;;;;;;;6.69;95.55;100533.77;116187;1306;24371;-72
2022/11/07 03:50:56;;;;;;;;;;;;;;;6.71;95.44;100535.13;116276;1304;22434;-74
2022/11/07 03:53:44;;;;;;;;;;;;;;;6.75;95.62;100536.61;116329;1302;22514;-71
2022/11/07 03:56:34;;;;;;;;;;;;;;;6.78;95.81;100534.63;116265;1306;22460;-71
2022/11/07 03:59:21;;;;;;;;;;;;;;;6.79;95.84;100536.86;116313;1298;22454;-72
2022/11/07 04:02:08;;;;;;;;;;;;;;;6.80;95.78;100534.60;116269;1298;24271;-72
2022/11/07 04:04:55;;;;;;;;;;;;;;;6.81;95.88;100539.45;116291;1293;22513;-71
2022/11/07 04:07:42;;;;;;;;;;;;;;;6.81;95.64;100537.20;116256;1283;25368;-71
2022/11/07 04:10:29;;;;;;;;;;;;;;;6.85;95.82;100531.56;116312;1305;24257;-72
2022/11/07 04:19:27;;;;;;;;;;;;;;;6.87;95.84;100530.29;116317;1287;22477;-71
2022/11/07 04:22:15;;;;;;;;;;;;;;;6.88;95.97;100529.58;116146;1284;22466;-72
2022/11/07 04:25:05;;;;;;;;;;;;;;;6.89;95.82;100528.52;116326;1276;25256;-72
2022/11/07 04:27:57;;;;;;;;;;;;;;;6.95;95.89;100529.95;116327;1304;22513;-73
2022/11/07 04:30:44;;;;;;;;;;;;;;;7.01;95.85;100527.59;116320;1297;22466;-72
2022/11/07 04:33:32;;;;;;;;;;;;;;;7.05;95.86;100526.98;116310;1304;25213;-71
2022/11/07 04:36:19;;;;;;;;;;;;;;;7.08;95.90;100523.09;116276;1305;24410;-71
2022/11/07 04:39:06;;;;;;;;;;;;;;;7.10;95.83;100517.32;116301;1306;22454;-71
2022/11/07 04:41:55;;;;;;;;;;;;;;;7.05;95.62;100516.23;116167;1298;22470;-72
2022/11/07 04:44:42;;;;;;;;;;;;;;;7.03;95.69;100512.62;116275;1304;24274;-73
2022/11/07 04:47:32;;;;;;;;;;;;;;;7.03;95.56;100508.45;116274;1287;22536;-74
2022/11/07 04:50:21;;;;;;;;;;;;;;;7.05;95.56;100513.29;116311;1305;22578;-69
2022/11/07 04:53:10;;;;;;;;;;;;;;;7.09;95.74;100508.15;116323;1304;22442;-71
2022/11/07 04:55:57;;;;;;;;;;;;;;;7.13;95.83;100505.64;116292;1304;24257;-73
2022/11/07 04:58:44;;;;;;;;;;;;;;;7.14;96.16;100498.34;116288;1304;22448;-70
2022/11/07 05:01:35;;;;;;;;;;;;;;;7.12;95.95;100492.48;116267;1304;22556;-72
2022/11/07 05:04:25;;;;;;;;;;;;;;;7.12;96.04;100486.05;116192;1304;25244;-73
2022/11/07 05:07:13;;;;;;;;;;;;;;;7.14;95.70;100490.70;116275;1303;22438;-71
2022/11/07 05:10:01;;;;;;;;;;;;;;;7.17;96.10;100486.66;116321;1294;22599;-71
2022/11/07 05:12:49;;;;;;;;;;;;;;;7.20;96.13;100475.48;116296;1304;22430;-70
2022/11/07 05:15:44;;;;;;;;;;;;;;;7.23;96.29;100482.86;116290;1287;25354;-71
2022/11/07 05:18:34;;;;;;;;;;;;;;;7.24;96.34;100476.60;116312;1288;22437;-72
2022/11/07 05:21:24;;;;;;;;;;;;;;;7.25;96.18;100480.23;116273;1287;22596;-72
2022/11/07 05:24:14;;;;;;;;;;;;;;;7.28;96.05;100478.23;116273;1304;22435;-73
2022/11/07 05:27:04;;;;;;;;;;;;;;;7.29;96.01;100475.98;116291;1296;22502;-73
2022/11/07 05:29:52;;;;;;;;;;;;;;;7.29;96.13;100470.77;116310;1284;22457;-73
2022/11/07 05:32:40;;;;;;;;;;;;;;;7.30;96.26;100471.45;116281;1303;22442;-74
2022/11/07 05:35:27;;;;;;;;;;;;;;;7.32;96.43;100472.26;116293;1304;22457;-73
2022/11/07 05:38:15;;;;;;;;;;;;;;;7.33;96.28;100467.89;116288;1287;24261;-72
2022/11/07 05:41:04;;;;;;;;;;;;;;;7.35;96.19;100471.65;116120;1306;22456;-71
2022/11/07 05:43:51;;;;;;;;;;;;;;;7.40;96.38;100470.17;116318;1304;22402;-71
2022/11/07 05:46:41;;;;;;;;;;;;;;;7.44;96.32;100470.25;116259;1304;24297;-73
2022/11/07 05:49:28;;;;;;;;;;;;;;;7.47;96.39;100466.88;116316;1306;22459;-72
2022/11/07 05:52:16;;;;;;;;;;;;;;;7.47;96.56;100459.23;116257;1278;22445;-70
2022/11/07 05:55:04;;;;;;;;;;;;;;;7.45;96.49;100459.64;116315;1304;22452;-71
2022/11/07 05:57:54;;;;;;;;;;;;;;;7.48;96.30;100465.45;116138;1289;25233;-71
2022/11/07 06:00:43;;;;;;;;;;;;;;;7.53;96.49;100471.06;116306;1297;22556;-69
2022/11/07 06:03:31;;;;;;;;;;;;;;;7.58;96.64;100469.56;116291;1287;22509;-70
2022/11/07 06:06:18;;;;;;;;;;;;;;;7.63;96.78;100471.34;116275;1289;22457;-71
2022/11/07 06:09:07;;;;;;;;;;;;;;;7.68;96.77;100471.91;116300;1278;22448;-72
2022/11/07 06:11:54;;;;;;;;;;;;;;;7.69;96.61;100471.39;116285;1294;22642;-71
2022/11/07 06:14:44;;;;;;;;;;;;;;;7.70;96.51;100476.02;116294;1291;25890;-71
2022/11/07 06:17:35;;;;;;;;;;;;;;;7.75;96.62;100478.17;116325;1287;25224;-70
2022/11/07 06:20:22;;;;;;;;;;;;;;;7.82;96.64;100486.86;116374;1284;22478;-71
2022/11/07 06:23:10;;;;;;;;;;;;;;;7.90;96.82;100493.93;116185;1287;22492;-70
2022/11/07 06:25:56;;;;;;;;;;;;;;;7.95;96.65;100493.83;116331;1285;22525;-70
2022/11/07 06:28:46;;;;;;;;;;;;;;;7.97;96.65;100494.11;116204;1303;22461;-70
2022/11/07 06:31:33;;;;;;;;;;;;;;;7.96;96.28;100491.70;116308;1303;22455;-71
2022/11/07 06:34:23;;;;;;;;;;;;;;;7.97;96.34;100490.97;116369;1303;24513;-70
2022/11/07 06:37:11;;;;;;;;;;;;;;;8.00;96.37;100487.43;116350;1284;22501;-71
2022/11/07 06:40:03;;;;;;;;;;;;;;;8.06;96.44;100492.49;116337;1301;22406;-70
2022/11/07 06:42:53;;;;;;;;;;;;;;;8.09;96.53;100488.08;116322;1285;22480;-70
2022/11/07 06:45:46;;;;;;;;;;;;;;;8.09;96.25;100490.00;116307;1284;22449;-70
2022/11/07 06:48:36;;;;;;;;;;;;;;;8.10;96.41;100481.80;116314;1300;25887;-69
2022/11/07 06:51:23;;;;;;;;;;;;;;;8.14;96.31;100481.70;116309;1303;22435;-69
2022/11/07 06:54:12;;;;;;;;;;;;;;;8.17;96.19;100479.52;116326;1291;22418;-70
2022/11/07 06:57:04;;;;;;;;;;;;;;;8.20;96.08;100480.30;116354;1285;22831;-69
2022/11/07 06:59:55;;;;;;;;;;;;;;;8.23;96.15;100482.33;116259;1303;25197;-70
2022/11/07 07:02:42;;;;;;;;;;;;;;;8.25;96.36;100484.34;116225;1303;22440;-69
2022/11/07 07:05:34;;;;;;;;;;;;;;;8.28;96.29;100484.98;116419;1284;22401;-72
2022/11/07 07:08:26;;;;;;;;;;;;;;;8.29;96.31;100484.26;116383;1284;22464;-69
2022/11/07 07:11:14;;;;;;;;;;;;;;;8.31;96.13;100488.02;116333;1298;22480;-69
2022/11/07 07:14:02;;;;;;;;;;;;;;;8.38;96.36;100483.51;116355;1303;22445;-71
2022/11/07 07:16:49;;;;;;;;;;;;;;;8.48;96.41;100476.81;116289;1284;25210;-72
2022/11/07 07:19:39;;;;;;;;;;;;;;;8.58;96.60;100480.70;116368;1303;22871;-71
2022/11/07 07:22:29;;;;;;;;;;;;;;;8.71;96.78;100481.39;116319;1300;22448;-71
2022/11/07 07:25:16;;;;;;;;;;;;;;;8.80;96.59;100476.94;116334;1295;22384;-70
2022/11/07 07:28:03;;;;;;;;;;;;;;;8.84;96.05;100477.17;116311;1303;24376;-72
2022/11/07 07:30:53;;;;;;;;;;;;;;;8.88;95.81;100475.32;116299;1300;22454;-72
2022/11/07 07:33:40;;;;;;;;;;;;;;;8.96;95.85;100484.47;116360;1303;22464;-72
2022/11/07 07:36:28;;;;;;;;;;;;;;;9.04;95.70;100476.59;116356;1303;24383;-72
2022/11/07 07:39:15;;;;;;;;;;;;;;;9.05;95.39;100477.41;116368;1284;22535;-71
2022/11/07 07:42:07;;;;;;;;;;;;;;;9.03;95.05;100474.71;116359;1303;22430;-70
2022/11/07 07:44:54;;;;;;;;;;;;;;;8.98;94.93;100469.81;116420;1298;22533;-71
2022/11/07 07:47:43;;;;;;;;;;;;;;;8.97;94.85;100473.32;116325;1303;22436;-70
2022/11/07 07:50:33;;;;;;;;;;;;;;;9.01;95.07;100472.85;116363;1303;22412;-69
2022/11/07 07:53:21;;;;;;;;;;;;;;;9.09;95.11;100470.18;116376;1303;22446;-70
2022/11/07 07:56:13;;;;;;;;;;;;;;;9.16;95.15;100467.89;116290;1285;22517;-72
2022/11/07 07:59:01;;;;;;;;;;;;;;;9.20;94.96;100467.23;116358;1284;22493;-71
2022/11/07 08:01:49;;;;;;;;;;;;;;;9.22;94.89;100470.13;116321;1303;24237;-72
2022/11/07 08:04:36;;;;;;;;;;;;;;;9.22;94.63;100464.56;116363;1277;22439;-70
2022/11/07 08:07:23;;;;;;;;;;;;;;;9.23;94.42;100462.24;116366;1295;22428;-70
2022/11/07 08:10:13;;;;;;;;;;;;;;;9.27;94.32;100465.78;116324;1284;22453;-71
2022/11/07 08:13:01;;;;;;;;;;;;;;;9.34;94.66;100465.58;116343;1303;22734;-71
2022/11/07 08:15:48;;;;;;;;;;;;;;;9.36;94.31;100466.91;116300;1298;22440;-70
2022/11/07 08:18:39;;;;;;;;;;;;;;;9.37;94.34;100469.16;116351;1303;22467;-70
2022/11/07 08:21:26;;;;;;;;;;;;;;;9.33;94.11;100469.42;116313;1277;25958;-72
2022/11/07 08:24:16;;;;;;;;;;;;;;;9.31;94.31;100468.29;116373;1303;22476;-70
2022/11/07 08:27:03;;;;;;;;;;;;;;;9.35;94.24;100463.81;116348;1294;22493;-70
2022/11/07 08:29:51;;;;;;;;;;;;;;;9.41;94.07;100464.14;116379;1303;22882;-71
2022/11/07 08:32:43;;;;;;;;;;;;;;;9.50;94.22;100460.71;116320;1281;22439;-69
2022/11/07 08:35:33;;;;;;;;;;;;;;;9.62;94.47;100459.11;116327;1298;24271;-70
2022/11/07 08:38:20;;;;;;;;;;;;;;;9.69;94.30;100456.42;116231;1303;22508;-71
2022/11/07 08:41:09;;;;;;;;;;;;;;;9.79;94.61;100460.64;116258;1303;22436;-70
2022/11/07 08:43:57;;;;;;;;;;;;;;;9.89;94.54;100457.50;116349;1303;24279;-71
2022/11/07 08:46:46;;;;;;;;;;;;;;;10.01;94.19;100456.59;116325;1273;22437;-71
2022/11/07 08:49:33;;;;;;;;;;;;;;;10.13;93.99;100453.36;116341;1303;22829;-71
2022/11/07 08:52:21;;;;;;;;;;;;;;;10.27;93.48;100451.33;116337;1284;22441;-71
2022/11/07 08:55:13;;;;;;;;;;;;;;;10.47;93.91;100447.14;116347;1298;22500;-71
2022/11/07 08:58:03;;;;;;;;;;;;;;;10.62;93.35;100446.41;116019;1303;466288;-70
2022/11/07 09:00:51;;;;;;;;;;;;;;;10.74;93.23;100451.02;116314;1281;22461;-69
2022/11/07 09:03:41;;;;;;;;;;;;;;;10.88;92.99;100448.39;116371;1278;22500;-70
2022/11/07 09:06:32;;;;;;;;;;;;;;;11.09;92.69;100451.10;116401;1293;22417;-69
2022/11/07 09:09:24;;;;;;;;;;;;;;;11.46;92.31;100448.23;116382;1295;22460;-72
2022/11/07 09:12:15;;;;;;;;;;;;;;;11.83;90.83;100440.63;116174;1287;22424;-74
2022/11/07 09:15:02;;;;;;;;;;;;;;;12.16;90.08;100442.36;116340;1286;22605;-72
2022/11/07 09:17:52;;;;;;;;;;;;;;;12.37;89.71;100435.30;116323;1288;25817;-70
2022/11/07 09:20:42;;;;;;;;;;;;;;;12.48;88.33;100440.59;116165;1303;22598;-73
2022/11/07 09:23:29;;;;;;;;;;;;;;;12.54;86.92;100436.83;116344;1303;25354;-71
2022/11/07 09:26:16;;;;;;;;;;;;;;;12.59;87.25;100431.52;116333;1297;22477;-71
2022/11/07 09:29:03;;;;;;;;;;;;;;;12.61;86.09;100433.34;116354;1285;22457;-73
2022/11/07 09:31:53;;;;;;;;;;;;;;;12.50;83.87;100431.59;116336;1287;22688;-74
2022/11/07 09:34:43;;;;;;;;;;;;;;;12.34;84.49;100434.22;116361;1299;22431;-71
2022/11/07 09:37:32;;;;;;;;;;;;;;;12.28;84.59;100434.14;116307;1287;22459;-71
2022/11/07 09:40:27;;;;;;;;;;;;;;;12.22;84.48;100431.42;116375;1303;22457;-73
2022/11/07 09:43:28;;;;;;;;;;;;;;;12.15;84.37;100430.34;116347;1277;22452;-72
2022/11/07 09:46:21;;;;;;;;;;;;;;;12.06;84.49;100426.36;116176;1299;22452;-73
2022/11/07 09:49:15;;;;;;;;;;;;;;;11.99;84.55;100423.65;116338;1278;24389;-73
2022/11/07 09:52:07;;;;;;;;;;;;;;;11.91;84.30;100419.46;116327;1287;22504;-71
2022/11/07 09:54:55;;;;;;;;;;;;;;;11.89;85.00;100415.37;116344;1276;22413;-71
2022/11/07 09:57:45;;;;;;;;;;;;;;;11.90;84.90;100411.84;116311;1291;22458;-71
2022/11/07 10:00:32;;;;;;;;;;;;;;;11.88;84.84;100405.77;116355;1303;24259;-70
2022/11/07 10:03:22;;;;;;;;;;;;;;;11.89;84.04;100400.17;116333;1303;22505;-71
2022/11/07 10:06:15;;;;;;;;;;;;;;;11.93;84.42;100403.84;116309;1303;22399;-71
2022/11/07 10:09:10;;;;;;;;;;;;;;;12.03;84.52;100404.11;116375;1284;22439;-73
2022/11/07 10:12:00;;;;;;;;;;;;;;;12.16;84.71;100403.38;116335;1295;22450;-74
2022/11/07 10:14:52;;;;;;;;;;;;;;;12.27;84.47;100400.59;116378;1297;22476;-71
2022/11/07 10:17:45;;;;;;;;;;;;;;;12.35;83.65;100394.96;116323;1296;22603;-71
2022/11/07 10:20:40;;;;;;;;;;;;;;;12.36;82.77;100396.16;116347;1295;22455;-72
2022/11/07 10:23:36;;;;;;;;;;;;;;;12.38;82.96;100401.14;116340;1298;24372;-71
2022/11/07 10:26:24;;;;;;;;;;;;;;;12.40;81.98;100400.20;116289;1302;22466;-71
2022/11/07 10:29:14;;;;;;;;;;;;;;;12.34;80.43;100397.64;116355;1303;22428;-72
2022/11/07 10:32:06;;;;;;;;;;;;;;;12.26;80.17;100396.42;116319;1288;22439;-72
2022/11/07 10:34:59;;;;;;;;;;;;;;;12.22;80.39;100397.16;116383;1303;22635;-72
2022/11/07 10:37:55;;;;;;;;;;;;;;;12.19;80.47;100389.96;116304;1294;22535;-73
2022/11/07 10:40:42;;;;;;;;;;;;;;;12.16;80.18;100388.33;116263;1291;22549;-72
2022/11/07 10:43:36;;;;;;;;;;;;;;;12.10;79.79;100391.88;116329;1287;22458;-72
2022/11/07 10:46:27;;;;;;;;;;;;;;;12.08;79.94;100391.11;116350;1303;22471;-72
2022/11/07 10:49:26;;;;;;;;;;;;;;;12.08;79.94;100388.48;116371;1298;22550;-69
2022/11/07 10:52:20;;;;;;;;;;;;;;;12.07;79.45;100380.33;116308;1294;25821;-71
2022/11/07 10:55:10;;;;;;;;;;;;;;;12.07;79.58;100380.52;116357;1287;22442;-73
2022/11/07 10:58:04;;;;;;;;;;;;;;;12.10;79.44;100375.64;116341;1301;22508;-71
2022/11/07 11:01:03;;;;;;;;;;;;;;;12.12;79.06;100375.55;116325;1284;22598;-70
2022/11/07 11:03:52;;;;;;;;;;;;;;;12.11;77.48;100375.40;116358;1303;22481;-71
2022/11/07 11:06:40;;;;;;;;;;;;;;;12.13;77.71;100384.27;116332;1288;22487;-72
2022/11/07 11:09:30;;;;;;;;;;;;;;;12.17;77.37;100384.61;116343;1284;22441;-74
2022/11/07 11:12:25;;;;;;;;;;;;;;;12.16;77.26;100383.41;116331;1303;22514;-75
2022/11/07 11:15:17;;;;;;;;;;;;;;;12.20;77.52;100378.54;116359;1300;25359;-72
2022/11/07 11:18:06;;;;;;;;;;;;;;;12.20;76.92;100383.41;116389;1303;22448;-72
2022/11/07 11:21:00;;;;;;;;;;;;;;;12.20;76.88;100381.35;116344;1303;22389;-72
2022/11/07 11:23:47;;;;;;;;;;;;;;;12.17;77.14;100385.48;116365;1298;22527;-72
2022/11/07 11:26:35;;;;;;;;;;;;;;;12.12;76.77;100391.79;116318;1303;24375;-71
2022/11/07 11:29:26;;;;;;;;;;;;;;;12.10;76.65;100395.73;116352;1303;22407;-71
2022/11/07 11:32:21;;;;;;;;;;;;;;;12.04;76.07;100395.48;116305;1303;22408;-70
2022/11/07 11:35:15;;;;;;;;;;;;;;;11.97;76.26;100396.48;116390;1286;22522;-72
2022/11/07 11:38:16;;;;;;;;;;;;;;;11.97;76.77;100393.89;116355;1303;22444;-71
2022/11/07 11:41:13;;;;;;;;;;;;;;;12.00;76.17;100402.29;116178;1290;22575;-72
2022/11/07 11:44:05;;;;;;;;;;;;;;;11.99;75.99;100398.33;116214;1304;22424;-73
2022/11/07 11:46:55;;;;;;;;;;;;;;;12.00;75.94;100400.20;116296;1303;22454;-72
2022/11/07 11:49:45;;;;;;;;;;;;;;;12.00;75.29;100402.98;116350;1303;22423;-72
2022/11/07 11:52:33;;;;;;;;;;;;;;;11.98;74.69;100402.91;116365;1298;25371;-70
2022/11/07 11:55:21;;;;;;;;;;;;;;;11.94;74.25;100405.19;116357;1277;22449;-72
2022/11/07 11:58:19;;;;;;;;;;;;;;;11.93;74.75;100399.13;116368;1303;22683;-72
2022/11/07 12:01:11;;;;;;;;;;;;;;;11.91;73.82;100398.16;116346;1303;22398;-73
2022/11/07 12:04:12;;;;;;;;;;;;;;;11.84;73.38;100396.88;116321;1293;22456;-72
2022/11/07 12:07:01;;;;;;;;;;;;;;;11.78;73.32;100400.60;116333;1284;22451;-73
2022/11/07 12:09:49;;;;;;;;;;;;;;;11.73;73.38;100403.77;116306;1298;24244;-72
2022/11/07 12:12:41;;;;;;;;;;;;;;;11.68;73.65;100397.16;116313;1303;22462;-70
2022/11/07 12:15:39;;;;;;;;;;;;;;;11.66;73.61;100399.20;116338;1303;22449;-72
2022/11/07 12:18:31;;;;;;;;;;;;;;;11.61;73.84;100400.23;116371;1294;23946;-71
2022/11/07 12:21:30;;;;;;;;;;;;;;;11.59;73.90;100406.11;116333;1284;22460;-71
2022/11/07 12:24:25;;;;;;;;;;;;;;;11.56;73.99;100407.27;116372;1303;22458;-70
2022/11/07 12:27:18;;;;;;;;;;;;;;;11.52;73.57;100408.84;116348;1296;22449;-71
2022/11/07 12:30:13;;;;;;;;;;;;;;;11.49;73.80;100402.16;116216;1303;25348;-74
2022/11/07 12:33:09;;;;;;;;;;;;;;;11.47;73.47;100400.84;116370;1303;22484;-72
2022/11/07 12:36:00;;;;;;;;;;;;;;;11.46;73.21;100401.20;116331;1299;22467;-70
2022/11/07 12:39:04;;;;;;;;;;;;;;;11.48;73.00;100400.13;116237;1299;22554;-69
2022/11/07 12:41:55;;;;;;;;;;;;;;;11.49;72.73;100389.77;116305;1303;24260;-70
2022/11/07 12:45:01;;;;;;;;;;;;;;;11.51;72.69;100399.30;116336;1285;25357;-72
2022/11/07 12:48:06;;;;;;;;;;;;;;;11.50;72.41;100402.62;116313;1294;25250;-70
2022/11/07 12:50:59;;;;;;;;;;;;;;;11.48;71.77;100405.20;116196;1304;22452;-72
2022/11/07 12:53:51;;;;;;;;;;;;;;;11.43;71.66;100404.86;116300;1303;22418;-73
2022/11/07 12:56:41;;;;;;;;;;;;;;;11.38;71.40;100403.67;116291;1292;22866;-73
2022/11/07 12:59:30;;;;;;;;;;;;;;;11.29;71.21;100402.63;116313;1303;24293;-72
2022/11/07 13:02:31;;;;;;;;;;;;;;;11.20;71.53;100406.81;116365;1303;22473;-72
2022/11/07 13:05:29;;;;;;;;;;;;;;;11.13;71.69;100408.02;116350;1302;22562;-72
2022/11/07 13:08:20;;;;;;;;;;;;;;;11.04;71.58;100410.08;116342;1298;22519;-71
2022/11/07 13:11:12;;;;;;;;;;;;;;;10.93;71.52;100418.37;116328;1303;22440;-71
2022/11/07 13:14:18;;;;;;;;;;;;;;;10.83;71.59;100417.88;116363;1283;22437;-72
2022/11/07 13:17:19;;;;;;;;;;;;;;;10.74;71.84;100424.35;116319;1289;22484;-72
2022/11/07 13:20:22;;;;;;;;;;;;;;;10.63;71.86;100424.03;116358;1303;22390;-73
2022/11/07 13:23:15;;;;;;;;;;;;;;;10.54;71.73;100428.22;116347;1302;22444;-72
2022/11/07 13:26:05;;;;;;;;;;;;;;;10.49;72.12;100430.34;116389;1290;25352;-72
2022/11/07 13:29:03;;;;;;;;;;;;;;;10.46;72.52;100429.90;116362;1298;22469;-71
2022/11/07 13:32:08;;;;;;;;;;;;;;;10.44;72.92;100431.73;116321;1298;22458;-71
2022/11/07 13:34:59;;;;;;;;;;;;;;;10.43;73.21;100439.60;116354;1303;22461;-74
2022/11/07 13:37:49;;;;;;;;;;;;;;;10.44;73.60;100439.94;116316;1297;22481;-72
2022/11/07 13:40:39;;;;;;;;;;;;;;;10.44;73.48;100438.52;116315;1284;22442;-70
2022/11/07 13:43:29;;;;;;;;;;;;;;;10.47;73.68;100442.45;116350;1303;25828;-72
2022/11/07 13:46:24;;;;;;;;;;;;;;;10.48;73.83;100434.73;116351;1284;25241;-70
2022/11/07 13:49:18;;;;;;;;;;;;;;;10.45;73.58;100434.66;116345;1303;22443;-71
2022/11/07 13:52:09;;;;;;;;;;;;;;;10.40;74.00;100439.40;116337;1284;22511;-72
2022/11/07 13:55:05;;;;;;;;;;;;;;;10.34;74.11;100439.23;116372;1303;24274;-71
2022/11/07 13:57:55;;;;;;;;;;;;;;;10.30;74.25;100439.36;116394;1291;22448;-72
2022/11/07 14:00:45;;;;;;;;;;;;;;;10.29;74.26;100440.80;116338;1303;22455;-72
2022/11/07 14:03:32;;;;;;;;;;;;;;;10.28;74.54;100443.98;116366;1294;22440;-71
2022/11/07 14:06:20;;;;;;;;;;;;;;;10.30;74.49;100451.92;116318;1292;22508;-72
2022/11/07 14:09:07;;;;;;;;;;;;;;;10.37;74.65;100455.88;116310;1303;22438;-71
2022/11/07 14:11:56;;;;;;;;;;;;;;;10.44;74.78;100455.27;116308;1303;24296;-70
2022/11/07 14:14:46;;;;;;;;;;;;;;;10.51;74.83;100454.83;116239;1303;22505;-73
2022/11/07 14:17:35;;;;;;;;;;;;;;;10.59;75.00;100454.22;116305;1297;22654;-73
2022/11/07 14:20:23;;;;;;;;;;;;;;;10.63;75.02;100454.75;116360;1303;25276;-74
2022/11/07 14:23:16;;;;;;;;;;;;;;;10.63;74.69;100460.66;116359;1284;24409;-72
2022/11/07 14:26:17;;;;;;;;;;;;;;;10.64;74.60;100457.33;116275;1286;22445;-70
2022/11/07 14:29:04;;;;;;;;;;;;;;;10.59;74.45;100456.82;116373;1303;22614;-71
2022/11/07 14:31:57;;;;;;;;;;;;;;;10.53;73.97;100459.48;116313;1286;22461;-71
2022/11/07 14:34:47;;;;;;;;;;;;;;;10.48;74.32;100462.99;116334;1301;24261;-73
2022/11/07 14:37:35;;;;;;;;;;;;;;;10.42;74.21;100462.65;116319;1303;22428;-74
2022/11/07 14:40:25;;;;;;;;;;;;;;;10.37;74.34;100462.34;116364;1303;25367;-71
2022/11/07 14:43:13;;;;;;;;;;;;;;;10.31;74.60;100460.27;116357;1285;22459;-70